Sherwin, Kansas
Current Conditions -  °F | °C
As of 10:35 AM on Saturday 25 Oct 2014 (Local Time) from KPTS Reporting Station
Clear Clear  
Wind Chill: 71°   Ceiling: Unl
Heat Index: 71°   Visibility: 10mi
Dew Point: 67°   Wind: 5mph
Humidity: 87%   Direction: 220°SW
Pressure: 30.08"   Gusts: NA
Location:  37.1637°N, 94.898°W
Report Text: KPTS 251535Z AUTO 22004KT 10SM CLR 22/19 A3008 RMK AO2 T02170194
Loading
Personal Weather Stations






























Interactive Weather Map
Tropical Storm Tracking
New forecast layout! Learn more

10-Day Weather Forecast

Advertisements
Track Severe Weather on mobile